You are listening to:
ARINC (JFK/LGA Area) - New York, New York, United States

KJFK 030551Z 23013KT 10SM FEW250 M01/M08 A3006 RMK AO2 SLP180 T10061078 10000 21006 56020 $

If stream doesn't start automatically press the play button
If stream stops then reload player then press play